Paint Rock, TX

12:03 PM CDT on April 27, 2015 (GMT -0500)
APRSWXNET | | Change Station
CLOSE
Current Station
Personal Weather Station
Location: Mereta, TX
Elevation: 1735 ft
Nearby Weather Stations

Elev 1735 ft 31.47 °N, 100.12 °W | Updated 5 hours ago

Partly Cloudy
Partly Cloudy
55.0 °F
Feels Like 55.0 °F
N
1.0
Wind Variable Wind from NNE
Gusts 2.0 mph

Today
High -- | Low -- °F
--% Chance of Precip.
Yesterday
High -- | Low -- °F
Precip. -- in
6:59 AM 8:17 PM
Waxing Gibbous, 66% visible
Pressure 29.73 in
Visibility 10.0 miles
Clouds Few 6000 ft
Dew Point 52.0 °F
Humidity 91%
Rainfall in
Snow Depth Not available.
UV 9 out of 12
Pollen 9.00 out of 12
Air Quality Not available.
Flu Activity Local Activity
METAR KSJT 271651Z 31007KT 280V350 10SM FEW060 23/08 A2978 RMK AO2 SLP067 T02330078

More Conditions Fewer Conditions

Pressure 29.73 in
Visibility 10.0 miles
Clouds Few 6000 ft
Dew Point 52.0 °F
Humidity 91%
Rainfall in
Snow Depth Not available.
UV 9 out of 12
Pollen 9.00 out of 12
Air Quality Not available.
Flu Activity Local Activity
METAR KSJT 271651Z 31007KT 280V350 10SM FEW060 23/08 A2978 RMK AO2 SLP067 T02330078

More Conditions Fewer Conditions

10-Day Weather Forecast

Almanac

Astronomy

Apr. 27, 2015 Rise Set
Actual Time
Civil Twilight
Nautical Twilight
Astronomical Twilight
Moon
Length of Visible Light
Length of Day
Tomorrow will be .
, % of the Moon is Illuminated

Today's Extremes

State Highs State Lows

Community

WunderPhotos

Upload Photos

1,817,341 photos uploaded!

WunderBlogs® & News

Nearby

Air Quality

  Air Quality AQ Index Pollutant
Not available.

Snow Depth

Station Depth Elevation

Earthquake Activity

City Distance Mag. Time & Date
Minimum magnitude displayed is 2.5.

Coastal Water Temperatures

Place Temperature

Stations

Nearby Weather Stations

Station Location Temp. Windchill Dew Point Humidity Wind Precip. Elev Updated Type